Time;durP1;ratioP1;P1;durP2;ratioP2;P2;SDS_P1;SDS_P2;PMS_P1;PMS_P2;Temp;Humidity;BMP_temperature;BMP_pressure;BME280_temperature;BME280_humidity;BME280_pressure;Samples;Min_cycle;Max_cycle;Signal;HPM_P1;HPM_P2
2021/04/10 00:01:09;;;;;;;;;;;9.60;81.00;;;;;;5093759;28;20381;-72
2021/04/10 00:03:35;;;;;;;;;;;9.60;80.60;;;;;;5093631;28;19970;-73
2021/04/10 00:06:00;;;;;;;;;;;9.70;80.60;;;;;;5092432;28;19922;-73
2021/04/10 00:08:26;;;;;;;;;;;9.70;80.70;;;;;;5093362;28;19908;-73
2021/04/10 00:10:52;;;;;;;;;;;9.70;80.70;;;;;;5093487;28;19912;-74
2021/04/10 00:13:17;;;;;;;;;;;9.70;79.90;;;;;;5093319;28;19960;-75
2021/04/10 00:15:43;;;;;;;;;;;9.70;80.10;;;;;;5092398;28;19916;-73
2021/04/10 00:18:08;;;;;;;;;;;9.70;79.90;;;;;;5093128;28;19950;-73
2021/04/10 00:20:34;;;;;;;;;;;9.70;80.00;;;;;;5093294;28;19908;-74
2021/04/10 00:22:59;;;;;;;;;;;9.70;80.00;;;;;;5093029;28;20437;-73
2021/04/10 00:25:25;;;;;;;;;;;9.70;80.90;;;;;;5078617;28;19916;-73
2021/04/10 00:27:50;;;;;;;;;;;9.70;81.30;;;;;;5071764;28;19915;-73
2021/04/10 00:30:16;;;;;;;;;;;9.70;81.20;;;;;;5072790;28;20385;-76
2021/04/10 00:32:41;;;;;;;;;;;9.70;80.90;;;;;;5072438;28;19947;-73
2021/04/10 00:35:07;;;;;;;;;;;9.70;81.20;;;;;;5071759;28;19912;-73
2021/04/10 00:37:34;;;;;;;;;;;9.70;81.60;;;;;;5070826;28;19912;-76
2021/04/10 00:39:59;;;;;;;;;;;9.70;80.70;;;;;;5072559;28;19923;-73
2021/04/10 00:42:25;;;;;;;;;;;9.70;80.50;;;;;;5071850;28;20328;-73
2021/04/10 00:44:50;;;;;;;;;;;9.70;80.90;;;;;;5072589;28;19909;-75
2021/04/10 00:47:16;;;;;;;;;;;9.70;80.60;;;;;;5071305;28;20409;-73
2021/04/10 00:49:41;;;;;;;;;;;9.80;80.30;;;;;;5072294;28;20291;-73
2021/04/10 00:52:08;;;;;;;;;;;9.80;80.70;;;;;;5072215;28;19954;-73
2021/04/10 00:54:34;;;;;;;;;;;9.80;80.60;;;;;;5072361;28;19908;-73
2021/04/10 00:56:59;;;;;;;;;;;9.80;80.50;;;;;;5076081;28;19908;-73
2021/04/10 00:59:25;;;;;;;;;;;9.80;80.60;;;;;;5092382;28;19915;-73
2021/04/10 01:01:50;;;;;;;;;;;9.80;80.30;;;;;;5092401;28;19915;-76
2021/04/10 01:04:16;;;;;;;;;;;9.80;81.00;;;;;;5092561;28;19992;-73
2021/04/10 01:06:42;;;;;;;;;;;9.80;80.60;;;;;;5090736;28;20391;-73
2021/04/10 01:09:07;;;;;;;;;;;9.80;80.70;;;;;;5092343;28;20337;-73
2021/04/10 01:11:48;;;;;;;;;;;9.90;80.90;;;;;;5092257;28;19912;-74
2021/04/10 01:14:37;;;;;;;;;;;9.90;80.70;;;;;;5091960;28;19951;-73
2021/04/10 01:17:06;;;;;;;;;;;9.90;80.60;;;;;;5090655;28;20266;-73
2021/04/10 01:19:50;;;;;;;;;;;10.00;79.40;;;;;;5092263;28;20006;-73
2021/04/10 01:22:21;;;;;;;;;;;10.10;79.20;;;;;;5092175;28;19909;-73
2021/04/10 01:24:57;;;;;;;;;;;10.10;79.40;;;;;;5092006;28;19908;-76
2021/04/10 01:27:24;;;;;;;;;;;10.10;79.10;;;;;;5090820;28;20113;-73
2021/04/10 01:29:51;;;;;;;;;;;10.10;78.90;;;;;;5086223;28;20007;-73
2021/04/10 01:32:18;;;;;;;;;;;10.10;79.20;;;;;;5090959;28;20276;-73
2021/04/10 01:34:48;;;;;;;;;;;10.10;79.20;;;;;;5091992;28;19923;-76
2021/04/10 01:37:17;;;;;;;;;;;10.10;79.30;;;;;;5090622;28;20316;-73
2021/04/10 01:39:42;;;;;;;;;;;10.10;79.10;;;;;;5091729;28;19995;-73
2021/04/10 01:42:09;;;;;;;;;;;10.10;79.10;;;;;;5091621;28;19947;-73
2021/04/10 01:44:36;;;;;;;;;;;10.10;79.80;;;;;;5091551;28;19912;-73
2021/04/10 01:47:02;;;;;;;;;;;10.10;79.10;;;;;;5090708;28;19912;-75
2021/04/10 01:49:29;;;;;;;;;;;10.10;78.90;;;;;;5091693;28;19955;-73
2021/04/10 01:51:56;;;;;;;;;;;10.10;79.50;;;;;;5091708;28;20292;-73
2021/04/10 01:54:21;;;;;;;;;;;10.10;79.10;;;;;;5091546;28;20373;-73
2021/04/10 01:56:47;;;;;;;;;;;10.10;79.70;;;;;;5090342;28;19934;-73
2021/04/10 01:59:14;;;;;;;;;;;10.10;79.70;;;;;;5091390;28;20273;-73
2021/04/10 02:01:41;;;;;;;;;;;10.10;80.10;;;;;;5091475;28;19908;-73
2021/04/10 02:04:08;;;;;;;;;;;10.10;79.90;;;;;;5091622;28;19915;-73
2021/04/10 02:06:34;;;;;;;;;;;10.00;80.30;;;;;;5089065;28;20339;-77
2021/04/10 02:08:59;;;;;;;;;;;10.00;80.50;;;;;;5091416;28;19912;-73
2021/04/10 02:11:25;;;;;;;;;;;10.00;80.20;;;;;;5091595;28;19920;-73
2021/04/10 02:13:52;;;;;;;;;;;10.00;80.80;;;;;;5091180;28;20392;-74
2021/04/10 02:16:17;;;;;;;;;;;10.00;81.00;;;;;;5089934;28;19920;-73
2021/04/10 02:18:43;;;;;;;;;;;10.00;80.80;;;;;;5090970;28;19908;-73
2021/04/10 02:21:10;;;;;;;;;;;10.00;81.10;;;;;;5090181;28;19912;-75
2021/04/10 02:23:42;;;;;;;;;;;9.90;82.20;;;;;;5091320;28;19909;-73
2021/04/10 02:26:10;;;;;;;;;;;9.90;82.20;;;;;;5065335;28;19908;-73
2021/04/10 02:28:36;;;;;;;;;;;9.90;82.40;;;;;;5070641;28;20433;-73
2021/04/10 02:31:03;;;;;;;;;;;9.90;82.50;;;;;;5070964;28;19999;-73
2021/04/10 02:33:31;;;;;;;;;;;9.90;82.50;;;;;;5071082;28;19908;-73
2021/04/10 02:35:57;;;;;;;;;;;9.90;82.80;;;;;;5069675;28;20007;-76
2021/04/10 02:38:25;;;;;;;;;;;9.90;82.80;;;;;;5070945;28;20000;-75
2021/04/10 02:40:54;;;;;;;;;;;9.90;82.40;;;;;;5071050;28;20393;-73
2021/04/10 02:43:26;;;;;;;;;;;9.90;82.50;;;;;;5070960;28;19909;-74
2021/04/10 02:45:53;;;;;;;;;;;9.90;83.10;;;;;;5069816;28;20314;-73
2021/04/10 02:48:23;;;;;;;;;;;9.90;83.00;;;;;;5070281;28;20175;-73
2021/04/10 02:50:50;;;;;;;;;;;9.90;82.90;;;;;;5070772;28;20492;-73
2021/04/10 02:53:16;;;;;;;;;;;9.90;83.40;;;;;;5070905;28;19919;-73
2021/04/10 02:55:44;;;;;;;;;;;9.80;83.40;;;;;;5073132;28;19908;-75
2021/04/10 02:58:11;;;;;;;;;;;9.80;83.20;;;;;;5090915;28;19908;-73
2021/04/10 03:00:38;;;;;;;;;;;9.80;83.60;;;;;;5090691;28;19908;-73
2021/04/10 03:03:04;;;;;;;;;;;9.80;83.40;;;;;;5090808;28;19916;-75
2021/04/10 03:05:30;;;;;;;;;;;9.90;83.50;;;;;;5090731;28;19946;-74
2021/04/10 03:07:56;;;;;;;;;;;9.80;83.50;;;;;;5089784;28;19909;-73
2021/04/10 03:10:22;;;;;;;;;;;9.90;83.90;;;;;;5090710;28;19919;-73
2021/04/10 03:12:49;;;;;;;;;;;10.00;83.20;;;;;;5090679;28;20284;-74
2021/04/10 03:15:16;;;;;;;;;;;10.00;83.30;;;;;;5090526;28;19912;-73
2021/04/10 03:17:42;;;;;;;;;;;10.00;83.20;;;;;;5089532;28;19955;-73
2021/04/10 03:20:12;;;;;;;;;;;10.00;83.50;;;;;;5090660;28;19915;-75
2021/04/10 03:22:40;;;;;;;;;;;10.00;83.30;;;;;;5089347;28;19908;-72
2021/04/10 03:25:06;;;;;;;;;;;10.00;83.40;;;;;;5074247;28;19915;-74
2021/04/10 03:27:32;;;;;;;;;;;10.00;83.90;;;;;;5069275;28;19908;-75
2021/04/10 03:29:57;;;;;;;;;;;10.00;84.00;;;;;;5073319;28;19934;-73
2021/04/10 03:32:24;;;;;;;;;;;10.00;84.60;;;;;;5074141;28;19909;-73
2021/04/10 03:34:49;;;;;;;;;;;10.00;84.40;;;;;;5074056;28;19909;-73
2021/04/10 03:37:15;;;;;;;;;;;10.10;85.00;;;;;;5072838;28;19921;-73
2021/04/10 03:39:41;;;;;;;;;;;10.10;85.00;;;;;;5074008;28;19909;-73
2021/04/10 03:42:09;;;;;;;;;;;10.10;85.00;;;;;;5073844;28;19909;-75
2021/04/10 03:44:35;;;;;;;;;;;10.10;85.00;;;;;;5073499;28;19993;-73
2021/04/10 03:47:00;;;;;;;;;;;10.10;84.70;;;;;;5072742;28;19977;-76
2021/04/10 03:49:26;;;;;;;;;;;10.10;84.90;;;;;;5073782;28;19913;-73
2021/04/10 03:51:51;;;;;;;;;;;10.10;84.90;;;;;;5073619;28;19984;-73
2021/04/10 03:54:17;;;;;;;;;;;10.10;84.90;;;;;;5073571;28;20423;-73
2021/04/10 03:56:42;;;;;;;;;;;10.10;84.90;;;;;;5080732;28;19915;-75
2021/04/10 03:59:08;;;;;;;;;;;10.00;84.60;;;;;;5073249;28;19915;-73
2021/04/10 04:01:33;;;;;;;;;;;10.10;84.50;;;;;;5072357;28;19913;-73
2021/04/10 04:03:59;;;;;;;;;;;10.00;83.90;;;;;;5073569;28;20289;-73
2021/04/10 04:06:24;;;;;;;;;;;10.10;84.10;;;;;;5072352;28;19913;-73
2021/04/10 04:08:50;;;;;;;;;;;10.00;85.10;;;;;;5073436;28;19908;-73
2021/04/10 04:11:15;;;;;;;;;;;10.00;88.10;;;;;;5073237;28;19916;-74
2021/04/10 04:13:41;;;;;;;;;;;9.90;91.00;;;;;;5073136;28;19916;-76
2021/04/10 04:16:06;;;;;;;;;;;9.70;91.50;;;;;;5071832;28;20005;-73
2021/04/10 04:18:32;;;;;;;;;;;9.60;92.20;;;;;;5071924;28;19908;-73
2021/04/10 04:20:57;;;;;;;;;;;9.40;92.90;;;;;;5073099;28;20293;-74
2021/04/10 04:23:23;;;;;;;;;;;9.20;93.30;;;;;;5073195;28;19912;-73
2021/04/10 04:25:48;;;;;;;;;;;9.10;93.20;;;;;;5071758;28;20448;-73
2021/04/10 04:28:14;;;;;;;;;;;9.10;92.70;;;;;;5072801;28;19909;-73
2021/04/10 04:30:39;;;;;;;;;;;9.10;91.80;;;;;;5072609;28;19999;-75
2021/04/10 04:33:05;;;;;;;;;;;9.10;91.50;;;;;;5072548;28;19999;-73
2021/04/10 04:35:30;;;;;;;;;;;9.20;91.50;;;;;;5072334;28;19916;-75
2021/04/10 04:37:56;;;;;;;;;;;9.20;91.60;;;;;;5071851;28;19930;-73
2021/04/10 04:40:21;;;;;;;;;;;9.20;91.60;;;;;;5071866;28;19909;-77
2021/04/10 04:42:47;;;;;;;;;;;9.20;91.60;;;;;;5072327;28;19935;-73
2021/04/10 04:45:12;;;;;;;;;;;9.20;91.70;;;;;;5072223;28;20270;-74
2021/04/10 04:47:38;;;;;;;;;;;9.20;92.00;;;;;;5071224;28;19915;-74
2021/04/10 04:50:04;;;;;;;;;;;9.20;92.30;;;;;;5072477;28;19928;-73
2021/04/10 04:52:29;;;;;;;;;;;9.10;92.60;;;;;;5072375;28;19940;-73
2021/04/10 04:54:55;;;;;;;;;;;9.10;93.30;;;;;;5072260;28;19935;-73
2021/04/10 04:57:20;;;;;;;;;;;9.00;94.20;;;;;;5088388;28;19918;-75
2021/04/10 04:59:46;;;;;;;;;;;8.90;95.40;;;;;;5091996;28;20362;-78
2021/04/10 05:02:13;;;;;;;;;;;8.80;96.40;;;;;;5091958;28;19927;-74
2021/04/10 05:04:38;;;;;;;;;;;8.60;97.20;;;;;;5092412;28;20323;-74
2021/04/10 05:07:04;;;;;;;;;;;8.50;98.10;;;;;;5091217;28;19908;-73
2021/04/10 05:09:29;;;;;;;;;;;8.50;98.80;;;;;;5092140;28;19912;-74
2021/04/10 05:11:54;;;;;;;;;;;8.40;99.60;;;;;;5092115;28;19908;-74
2021/04/10 05:14:20;;;;;;;;;;;8.30;99.90;;;;;;5091959;28;19934;-75
2021/04/10 05:16:45;;;;;;;;;;;8.30;99.90;;;;;;5091210;28;19908;-73
2021/04/10 05:19:11;;;;;;;;;;;8.20;99.90;;;;;;5092059;28;20007;-74
2021/04/10 05:21:36;;;;;;;;;;;8.20;99.90;;;;;;5092003;28;19912;-76
2021/04/10 05:24:02;;;;;;;;;;;8.30;99.90;;;;;;5089131;28;19908;-73
2021/04/10 05:26:27;;;;;;;;;;;8.30;99.90;;;;;;5087526;28;19908;-74
2021/04/10 05:28:53;;;;;;;;;;;8.20;99.90;;;;;;5091885;28;20399;-73
2021/04/10 05:31:18;;;;;;;;;;;8.20;99.90;;;;;;5091643;28;19912;-74
2021/04/10 05:33:44;;;;;;;;;;;8.10;99.90;;;;;;5092227;28;19908;-73
2021/04/10 05:36:09;;;;;;;;;;;8.00;99.90;;;;;;5090401;28;19923;-74
2021/04/10 05:38:35;;;;;;;;;;;8.00;99.90;;;;;;5091908;28;20001;-75
2021/04/10 05:41:00;;;;;;;;;;;8.00;99.90;;;;;;5091782;28;19915;-74
2021/04/10 05:43:26;;;;;;;;;;;7.90;99.90;;;;;;5091654;28;19915;-74
2021/04/10 05:45:51;;;;;;;;;;;7.90;99.90;;;;;;5090192;28;20014;-74
2021/04/10 05:48:17;;;;;;;;;;;8.00;99.90;;;;;;5091664;28;19912;-76
2021/04/10 05:50:42;;;;;;;;;;;7.90;99.90;;;;;;5091634;28;19919;-73
2021/04/10 05:53:08;;;;;;;;;;;8.00;99.90;;;;;;5091865;28;19954;-73
2021/04/10 05:55:33;;;;;;;;;;;8.00;99.90;;;;;;5070497;28;19908;-74
2021/04/10 05:57:59;;;;;;;;;;;8.10;99.90;;;;;;5084841;28;19912;-74
2021/04/10 06:00:25;;;;;;;;;;;8.10;99.90;;;;;;5091477;28;19955;-73
2021/04/10 06:02:51;;;;;;;;;;;8.20;99.90;;;;;;5091581;28;19932;-73
2021/04/10 06:05:18;;;;;;;;;;;8.20;99.90;;;;;;5091418;28;20323;-74
2021/04/10 06:07:44;;;;;;;;;;;8.30;99.90;;;;;;5064455;28;19920;-74
2021/04/10 06:10:10;;;;;;;;;;;8.40;99.90;;;;;;5061526;28;20277;-76
2021/04/10 06:12:35;;;;;;;;;;;8.40;99.90;;;;;;5060248;28;19921;-75
2021/04/10 06:15:01;;;;;;;;;;;8.50;99.90;;;;;;5070895;28;19908;-73
2021/04/10 06:17:27;;;;;;;;;;;8.60;99.90;;;;;;5070006;28;20393;-73
2021/04/10 06:19:52;;;;;;;;;;;8.60;99.90;;;;;;5070912;28;19912;-76
2021/04/10 06:22:18;;;;;;;;;;;8.70;99.90;;;;;;5070907;28;19909;-75
2021/04/10 06:24:43;;;;;;;;;;;8.70;99.90;;;;;;5062729;28;20370;-73
2021/04/10 06:27:10;;;;;;;;;;;8.80;99.90;;;;;;5051980;28;19917;-74
2021/04/10 06:29:36;;;;;;;;;;;8.80;99.90;;;;;;5053572;28;20365;-75
2021/04/10 06:32:01;;;;;;;;;;;8.90;99.90;;;;;;5049933;28;19909;-73
2021/04/10 06:34:27;;;;;;;;;;;8.90;99.90;;;;;;5070338;28;19952;-73
2021/04/10 06:36:52;;;;;;;;;;;8.80;99.90;;;;;;5068257;28;19916;-73
2021/04/10 06:39:18;;;;;;;;;;;8.90;99.90;;;;;;5064706;28;19913;-73
2021/04/10 06:41:43;;;;;;;;;;;8.80;99.90;;;;;;5070465;28;20372;-73
2021/04/10 06:44:09;;;;;;;;;;;8.80;99.90;;;;;;5070751;28;19912;-73
2021/04/10 06:46:35;;;;;;;;;;;8.80;99.90;;;;;;5068428;28;19916;-74
2021/04/10 06:49:21;;;;;;;;;;;8.80;99.90;;;;;;5071181;28;19908;-74
2021/04/10 06:51:46;;;;;;;;;;;8.80;99.90;;;;;;5070294;28;19924;-73
2021/04/10 06:54:13;;;;;;;;;;;8.70;99.90;;;;;;5065909;28;19909;-73
2021/04/10 06:56:39;;;;;;;;;;;8.80;99.90;;;;;;5089240;28;19962;-75
2021/04/10 06:59:08;;;;;;;;;;;8.80;99.90;;;;;;5090716;28;19912;-74
2021/04/10 07:01:34;;;;;;;;;;;8.80;99.90;;;;;;5090588;28;19923;-73
2021/04/10 07:03:59;;;;;;;;;;;8.80;99.90;;;;;;5093040;28;19908;-73
2021/04/10 07:06:25;;;;;;;;;;;8.90;99.90;;;;;;5075965;28;20011;-76
2021/04/10 07:08:50;;;;;;;;;;;9.00;99.90;;;;;;5065043;28;20408;-73
2021/04/10 07:11:16;;;;;;;;;;;9.00;99.90;;;;;;5071012;28;19959;-73
2021/04/10 07:13:42;;;;;;;;;;;9.10;99.90;;;;;;5053982;28;19987;-73
2021/04/10 07:16:08;;;;;;;;;;;9.10;99.90;;;;;;5052641;28;19979;-73
2021/04/10 07:18:35;;;;;;;;;;;9.20;99.90;;;;;;5054059;28;20332;-73
2021/04/10 07:21:13;;;;;;;;;;;9.20;99.90;;;;;;5055509;28;19909;-73
2021/04/10 07:23:47;;;;;;;;;;;9.20;99.90;;;;;;5073843;28;19951;-73
2021/04/10 07:26:13;;;;;;;;;;;9.30;99.90;;;;;;5068888;28;20018;-74
2021/04/10 07:28:38;;;;;;;;;;;9.30;99.90;;;;;;5069361;28;19958;-73
2021/04/10 07:31:08;;;;;;;;;;;9.30;99.90;;;;;;5073527;28;19919;-73
2021/04/10 07:33:33;;;;;;;;;;;9.30;99.90;;;;;;5073802;28;19915;-74
2021/04/10 07:35:59;;;;;;;;;;;9.30;99.90;;;;;;5072774;28;20003;-73
2021/04/10 07:38:28;;;;;;;;;;;9.30;99.90;;;;;;5073599;28;19912;-73
2021/04/10 07:40:54;;;;;;;;;;;9.30;99.90;;;;;;5073960;28;19912;-73
2021/04/10 07:43:27;;;;;;;;;;;9.30;99.90;;;;;;5073737;28;19915;-75
2021/04/10 07:46:09;;;;;;;;;;;9.30;99.90;;;;;;5072379;28;20795;-74
2021/04/10 07:48:35;;;;;;;;;;;9.30;99.90;;;;;;5073144;28;20395;-74
2021/04/10 07:51:00;;;;;;;;;;;9.30;99.90;;;;;;5073643;28;19912;-74
2021/04/10 07:53:26;;;;;;;;;;;9.40;99.90;;;;;;5073491;28;19908;-73
2021/04/10 07:55:52;;;;;;;;;;;9.50;99.90;;;;;;5077438;28;19916;-74
2021/04/10 07:58:22;;;;;;;;;;;9.50;99.90;;;;;;5093598;28;20384;-76
2021/04/10 08:00:48;;;;;;;;;;;9.60;99.90;;;;;;5091808;28;19919;-73
2021/04/10 08:03:43;;;;;;;;;;;9.60;99.90;;;;;;5093558;28;19912;-73
2021/04/10 08:06:08;;;;;;;;;;;9.60;99.90;;;;;;5091724;28;19908;-73
2021/04/10 08:08:34;;;;;;;;;;;9.60;99.90;;;;;;5093499;28;20380;-73
2021/04/10 08:11:03;;;;;;;;;;;9.70;99.90;;;;;;5093094;28;20001;-73
2021/04/10 08:13:29;;;;;;;;;;;9.70;99.90;;;;;;5093179;28;19951;-74
2021/04/10 08:16:14;;;;;;;;;;;9.80;99.90;;;;;;5090728;28;19956;-73
2021/04/10 08:18:50;;;;;;;;;;;9.90;99.90;;;;;;5093404;28;19933;-73
2021/04/10 08:21:35;;;;;;;;;;;9.90;99.90;;;;;;5093214;28;19912;-73
2021/04/10 08:24:02;;;;;;;;;;;10.00;99.90;;;;;;5087599;28;19916;-74
2021/04/10 08:26:28;;;;;;;;;;;10.10;99.90;;;;;;5087877;28;20373;-73
2021/04/10 08:28:53;;;;;;;;;;;10.10;99.90;;;;;;5093124;28;19950;-73
2021/04/10 08:31:19;;;;;;;;;;;10.10;99.90;;;;;;5067782;28;19966;-75
2021/04/10 08:33:44;;;;;;;;;;;10.10;99.90;;;;;;5070072;28;19917;-73
2021/04/10 08:36:11;;;;;;;;;;;10.10;99.90;;;;;;5062076;28;19962;-74
2021/04/10 08:38:38;;;;;;;;;;;10.10;99.90;;;;;;5070425;28;20395;-73
2021/04/10 08:41:05;;;;;;;;;;;10.10;99.90;;;;;;5069615;28;19919;-74
2021/04/10 08:43:38;;;;;;;;;;;10.10;99.90;;;;;;5072190;28;19915;-74
2021/04/10 08:46:05;;;;;;;;;;;10.20;99.90;;;;;;5070977;28;19912;-73
2021/04/10 08:48:31;;;;;;;;;;;10.30;99.90;;;;;;5072260;28;20362;-73
2021/04/10 08:50:59;;;;;;;;;;;10.50;99.90;;;;;;5071947;28;19912;-73
2021/04/10 08:53:27;;;;;;;;;;;10.60;99.90;;;;;;5072192;28;20198;-73
2021/04/10 08:55:53;;;;;;;;;;;10.70;99.90;;;;;;5064949;28;19918;-73
2021/04/10 08:58:18;;;;;;;;;;;10.80;99.90;;;;;;5071890;28;20003;-73
2021/04/10 09:00:44;;;;;;;;;;;10.90;99.90;;;;;;5071847;28;19920;-74
2021/04/10 09:03:09;;;;;;;;;;;11.00;99.90;;;;;;5059867;28;20342;-74
2021/04/10 09:05:45;;;;;;;;;;;11.00;99.90;;;;;;5070861;28;20354;-73
2021/04/10 09:08:22;;;;;;;;;;;11.10;99.90;;;;;;5071872;28;19915;-73
2021/04/10 09:10:47;;;;;;;;;;;11.20;99.90;;;;;;5071981;28;20006;-73
2021/04/10 09:13:13;;;;;;;;;;;11.40;99.90;;;;;;5071698;28;20392;-73
2021/04/10 09:15:39;;;;;;;;;;;11.40;99.80;;;;;;5070945;28;19916;-73
2021/04/10 09:18:05;;;;;;;;;;;11.50;99.40;;;;;;5072014;28;20426;-73
2021/04/10 09:23:09;;;;;;;;;;;11.50;98.90;;;;;;5071774;28;19915;-74
2021/04/10 09:25:35;;;;;;;;;;;11.60;99.20;;;;;;5065700;28;20924;-74
2021/04/10 09:28:06;;;;;;;;;;;11.60;98.80;;;;;;5070884;28;19983;-76
2021/04/10 09:30:36;;;;;;;;;;;11.60;98.90;;;;;;5070966;28;19923;-73
2021/04/10 09:33:21;;;;;;;;;;;11.60;98.40;;;;;;5071469;28;19909;-73
2021/04/10 09:35:47;;;;;;;;;;;11.60;98.30;;;;;;5070236;28;19927;-74
2021/04/10 09:38:12;;;;;;;;;;;11.70;98.20;;;;;;5071389;28;19909;-75
2021/04/10 09:40:48;;;;;;;;;;;11.60;98.10;;;;;;5071761;28;20402;-74
2021/04/10 09:43:15;;;;;;;;;;;11.60;98.00;;;;;;5071317;28;20427;-74
2021/04/10 09:45:40;;;;;;;;;;;11.60;97.20;;;;;;5069978;28;20365;-74
2021/04/10 09:48:07;;;;;;;;;;;11.40;97.20;;;;;;5071041;28;19920;-73
2021/04/10 09:50:33;;;;;;;;;;;11.30;97.10;;;;;;5071149;28;20429;-73
2021/04/10 09:53:00;;;;;;;;;;;11.30;97.70;;;;;;5071017;28;20388;-74
2021/04/10 09:55:26;;;;;;;;;;;11.30;96.90;;;;;;5066004;28;19912;-74
2021/04/10 09:57:56;;;;;;;;;;;11.30;97.20;;;;;;5069980;28;19951;-73
2021/04/10 10:00:28;;;;;;;;;;;11.30;96.90;;;;;;5068918;28;20014;-74
2021/04/10 10:02:57;;;;;;;;;;;11.30;96.30;;;;;;5059998;28;19935;-73
2021/04/10 10:05:23;;;;;;;;;;;11.40;97.30;;;;;;5068235;28;20003;-74
2021/04/10 10:07:50;;;;;;;;;;;11.50;96.90;;;;;;5069765;28;19912;-73
2021/04/10 10:10:15;;;;;;;;;;;11.50;96.20;;;;;;5070592;28;19920;-75
2021/04/10 10:12:41;;;;;;;;;;;11.60;96.30;;;;;;5070927;28;19908;-76
2021/04/10 10:15:22;;;;;;;;;;;11.60;96.20;;;;;;5070720;28;19979;-74
2021/04/10 10:17:48;;;;;;;;;;;11.60;96.50;;;;;;5069469;28;19999;-74
2021/04/10 10:20:14;;;;;;;;;;;11.80;96.70;;;;;;5066957;28;19995;-75
2021/04/10 10:22:40;;;;;;;;;;;11.90;95.50;;;;;;5069101;28;19912;-74
2021/04/10 10:25:06;;;;;;;;;;;11.90;94.90;;;;;;5064990;28;19919;-75
2021/04/10 10:27:52;;;;;;;;;;;12.00;95.20;;;;;;5068408;28;19908;-74
2021/04/10 10:30:19;;;;;;;;;;;12.00;95.10;;;;;;5069553;28;19913;-77
2021/04/10 10:32:45;;;;;;;;;;;12.10;94.40;;;;;;5069961;28;19909;-74
2021/04/10 10:35:11;;;;;;;;;;;12.10;94.40;;;;;;5069597;28;19962;-74
2021/04/10 10:37:37;;;;;;;;;;;12.20;95.00;;;;;;5069015;28;20296;-74
2021/04/10 10:40:03;;;;;;;;;;;12.30;94.80;;;;;;5074747;28;19908;-73
2021/04/10 10:42:28;;;;;;;;;;;12.40;94.40;;;;;;5074765;28;19909;-73
2021/04/10 10:44:54;;;;;;;;;;;12.50;93.70;;;;;;5074822;28;19908;-73
2021/04/10 10:47:23;;;;;;;;;;;12.60;94.20;;;;;;5073415;28;20328;-73
2021/04/10 10:49:49;;;;;;;;;;;12.70;93.80;;;;;;5074394;28;20026;-73
2021/04/10 10:52:15;;;;;;;;;;;12.70;93.50;;;;;;5074579;28;19999;-73
2021/04/10 10:54:42;;;;;;;;;;;12.90;93.30;;;;;;5069754;28;19927;-73
2021/04/10 10:57:07;;;;;;;;;;;13.00;92.30;;;;;;5073417;28;20270;-73
2021/04/10 10:59:33;;;;;;;;;;;13.10;92.70;;;;;;5072770;28;19913;-74
2021/04/10 11:01:59;;;;;;;;;;;13.20;92.90;;;;;;5073106;28;19908;-73
2021/04/10 11:04:25;;;;;;;;;;;13.30;92.70;;;;;;5074090;28;19912;-73
2021/04/10 11:06:52;;;;;;;;;;;13.40;92.00;;;;;;5073871;28;19908;-74
2021/04/10 11:09:19;;;;;;;;;;;13.50;91.90;;;;;;5075523;28;20372;-74
2021/04/10 11:11:46;;;;;;;;;;;13.60;92.10;;;;;;5074658;28;19959;-74
2021/04/10 11:14:17;;;;;;;;;;;13.70;91.60;;;;;;5070463;28;20390;-74
2021/04/10 11:16:43;;;;;;;;;;;13.90;91.70;;;;;;5063371;28;20007;-74
2021/04/10 11:19:09;;;;;;;;;;;14.00;90.10;;;;;;5074569;28;19912;-74
2021/04/10 11:21:34;;;;;;;;;;;14.10;89.80;;;;;;5073631;28;19909;-74
2021/04/10 11:24:00;;;;;;;;;;;14.20;90.30;;;;;;5072013;28;20368;-74
2021/04/10 11:26:35;;;;;;;;;;;14.10;88.80;;;;;;5088882;28;19916;-74
2021/04/10 11:29:14;;;;;;;;;;;14.10;89.70;;;;;;5094326;28;19943;-74
2021/04/10 11:31:40;;;;;;;;;;;14.10;90.60;;;;;;5093888;28;20361;-75
2021/04/10 11:34:41;;;;;;;;;;;14.20;90.20;;;;;;5093019;28;19999;-74
2021/04/10 11:37:07;;;;;;;;;;;14.30;87.50;;;;;;5090553;28;19916;-74
2021/04/10 11:39:49;;;;;;;;;;;14.50;88.40;;;;;;5093570;28;19963;-74
2021/04/10 11:42:20;;;;;;;;;;;14.60;87.70;;;;;;5092959;28;19908;-74
2021/04/10 11:44:46;;;;;;;;;;;14.60;88.20;;;;;;5094316;28;19908;-74
2021/04/10 11:47:17;;;;;;;;;;;14.70;88.90;;;;;;5092810;28;19910;-74
2021/04/10 11:49:44;;;;;;;;;;;14.80;85.40;;;;;;5093798;28;20383;-74
2021/04/10 11:52:09;;;;;;;;;;;14.90;87.70;;;;;;5093775;28;19969;-74
2021/04/10 11:54:35;;;;;;;;;;;15.00;86.30;;;;;;5084260;28;19920;-74
2021/04/10 11:57:01;;;;;;;;;;;15.20;86.10;;;;;;5092923;28;19961;-74
2021/04/10 11:59:33;;;;;;;;;;;15.40;85.60;;;;;;5093748;28;19908;-74
2021/04/10 12:02:02;;;;;;;;;;;15.50;83.20;;;;;;5093422;28;20331;-74
2021/04/10 12:04:34;;;;;;;;;;;15.80;85.50;;;;;;5092429;28;19908;-74
2021/04/10 12:07:04;;;;;;;;;;;16.00;81.10;;;;;;5092778;28;19912;-74
2021/04/10 12:09:29;;;;;;;;;;;16.30;78.60;;;;;;5093571;28;20380;-72
2021/04/10 12:11:59;;;;;;;;;;;16.50;77.80;;;;;;5093659;28;19908;-73
2021/04/10 12:14:24;;;;;;;;;;;16.70;79.80;;;;;;5093886;28;20369;-73
2021/04/10 12:16:50;;;;;;;;;;;17.20;77.90;;;;;;5092012;28;19912;-73
2021/04/10 12:19:15;;;;;;;;;;;17.50;75.30;;;;;;5093815;28;19916;-73
2021/04/10 12:21:41;;;;;;;;;;;17.70;75.20;;;;;;5093292;28;20001;-73
2021/04/10 12:24:07;;;;;;;;;;;17.70;73.90;;;;;;5084916;28;19912;-73
2021/04/10 12:26:37;;;;;;;;;;;17.80;73.70;;;;;;5068846;28;19909;-73
2021/04/10 12:29:02;;;;;;;;;;;17.90;70.00;;;;;;5072731;28;19908;-73
2021/04/10 12:31:28;;;;;;;;;;;17.60;67.50;;;;;;5072645;28;19920;-73
2021/04/10 12:33:53;;;;;;;;;;;17.30;67.30;;;;;;5072779;28;20510;-74
2021/04/10 12:36:19;;;;;;;;;;;17.20;66.20;;;;;;5071710;28;20011;-74
2021/04/10 12:38:44;;;;;;;;;;;17.10;65.80;;;;;;5072665;28;19962;-74
2021/04/10 12:41:10;;;;;;;;;;;17.10;65.10;;;;;;5072762;28;20003;-74
2021/04/10 12:43:36;;;;;;;;;;;17.20;64.30;;;;;;5072755;28;19938;-74
2021/04/10 12:46:01;;;;;;;;;;;17.50;65.20;;;;;;5071317;28;20014;-74
2021/04/10 12:48:27;;;;;;;;;;;17.80;64.60;;;;;;5071820;28;19909;-74
2021/04/10 12:50:52;;;;;;;;;;;17.90;60.90;;;;;;5072417;28;20277;-74
2021/04/10 12:53:18;;;;;;;;;;;18.00;59.80;;;;;;5072436;28;19912;-74
2021/04/10 12:55:43;;;;;;;;;;;18.00;59.20;;;;;;5071440;28;19909;-74
2021/04/10 12:58:09;;;;;;;;;;;18.00;58.10;;;;;;5071472;28;19908;-74
2021/04/10 13:00:34;;;;;;;;;;;18.00;59.60;;;;;;5071406;28;19932;-74
2021/04/10 13:03:00;;;;;;;;;;;17.90;58.60;;;;;;5071965;28;19951;-74
2021/04/10 13:05:26;;;;;;;;;;;17.90;57.20;;;;;;5072218;28;19915;-74
2021/04/10 13:07:51;;;;;;;;;;;17.90;59.60;;;;;;5070796;28;19908;-74
2021/04/10 13:10:17;;;;;;;;;;;17.80;56.20;;;;;;5072188;28;19920;-74
2021/04/10 13:12:43;;;;;;;;;;;17.70;59.30;;;;;;5072083;28;20335;-74
2021/04/10 13:15:10;;;;;;;;;;;17.70;58.80;;;;;;5071887;28;19912;-74
2021/04/10 13:17:40;;;;;;;;;;;17.60;56.40;;;;;;5070495;28;19957;-74
2021/04/10 13:20:06;;;;;;;;;;;17.40;58.30;;;;;;5072010;28;20380;-74
2021/04/10 13:22:32;;;;;;;;;;;17.30;59.30;;;;;;5070517;28;19908;-74
2021/04/10 13:24:57;;;;;;;;;;;17.30;56.20;;;;;;5071840;28;20003;-74
2021/04/10 13:27:23;;;;;;;;;;;17.30;60.00;;;;;;5069907;28;20337;-74
2021/04/10 13:29:48;;;;;;;;;;;17.30;59.20;;;;;;5071280;28;19913;-74
2021/04/10 13:32:14;;;;;;;;;;;17.30;55.40;;;;;;5071340;28;19932;-74
2021/04/10 13:34:39;;;;;;;;;;;17.30;55.70;;;;;;5071604;28;19909;-74
2021/04/10 13:37:05;;;;;;;;;;;17.30;58.60;;;;;;5069693;28;19931;-74
2021/04/10 13:39:30;;;;;;;;;;;17.30;56.90;;;;;;5071560;28;19916;-74
2021/04/10 13:41:56;;;;;;;;;;;17.30;56.80;;;;;;5071483;28;20407;-74
2021/04/10 13:44:21;;;;;;;;;;;17.20;58.20;;;;;;5071439;28;19909;-74
2021/04/10 13:46:47;;;;;;;;;;;17.20;57.00;;;;;;5070060;28;19908;-74
2021/04/10 13:49:13;;;;;;;;;;;17.30;58.90;;;;;;5071238;28;19951;-74
2021/04/10 13:51:39;;;;;;;;;;;17.40;59.50;;;;;;5071089;28;19912;-74
2021/04/10 13:54:05;;;;;;;;;;;17.50;58.90;;;;;;5071343;28;19915;-74
2021/04/10 13:56:30;;;;;;;;;;;17.50;56.60;;;;;;5069382;28;19919;-74
2021/04/10 13:58:56;;;;;;;;;;;17.50;58.00;;;;;;5063835;28;19912;-74
2021/04/10 14:01:22;;;;;;;;;;;17.50;56.40;;;;;;5069833;28;20358;-74
2021/04/10 14:03:47;;;;;;;;;;;17.70;58.30;;;;;;5068201;28;20270;-75
2021/04/10 14:06:14;;;;;;;;;;;17.90;56.60;;;;;;5062937;28;20278;-74
2021/04/10 14:08:39;;;;;;;;;;;17.90;54.90;;;;;;5071044;28;19908;-74
2021/04/10 14:11:05;;;;;;;;;;;17.90;56.40;;;;;;5071092;28;19923;-75
2021/04/10 14:13:31;;;;;;;;;;;17.90;56.50;;;;;;5069583;28;19909;-75
2021/04/10 14:15:59;;;;;;;;;;;18.00;57.40;;;;;;5069717;28;20270;-75
2021/04/10 14:18:25;;;;;;;;;;;18.10;57.10;;;;;;5071193;28;19908;-75
2021/04/10 14:20:50;;;;;;;;;;;18.30;56.40;;;;;;5071233;28;19909;-75
2021/04/10 14:23:21;;;;;;;;;;;18.60;57.40;;;;;;5069912;28;20389;-75
2021/04/10 14:25:47;;;;;;;;;;;18.90;57.90;;;;;;5067893;28;19920;-75